地図

経路データ

SID SEASON NUMBER BASIN SUBBASIN NAME ISO_TIME NATURE LAT LON WMO_WIND WMO_PRES WMO_AGENCY TRACK_TYPE DIST2LAND LANDFALL IFLAG USA_AGENCY USA_ATCF_ID USA_LAT USA_LON USA_RECORD USA_STATUS USA_WIND USA_PRES USA_SSHS USA_R34_NE USA_R34_SE USA_R34_SW USA_R34_NW USA_R50_NE USA_R50_SE USA_R50_SW USA_R50_NW USA_R64_NE USA_R64_SE USA_R64_SW USA_R64_NW USA_POCI USA_ROCI USA_RMW USA_EYE TOKYO_LAT TOKYO_LON TOKYO_GRADE TOKYO_WIND TOKYO_PRES TOKYO_R50_DIR TOKYO_R50_LONG TOKYO_R50_SHORT TOKYO_R30_DIR TOKYO_R30_LONG TOKYO_R30_SHORT TOKYO_LAND CMA_LAT CMA_LON CMA_CAT CMA_WIND CMA_PRES HKO_LAT HKO_LON HKO_CAT HKO_WIND HKO_PRES NEWDELHI_LAT NEWDELHI_LON NEWDELHI_GRADE NEWDELHI_WIND NEWDELHI_PRES NEWDELHI_CI NEWDELHI_DP NEWDELHI_POCI REUNION_LAT REUNION_LON REUNION_TYPE REUNION_WIND REUNION_PRES REUNION_TNUM REUNION_CI REUNION_RMW REUNION_R34_NE REUNION_R34_SE REUNION_R34_SW REUNION_R34_NW REUNION_R50_NE REUNION_R50_SE REUNION_R50_SW REUNION_R50_NW REUNION_R64_NE REUNION_R64_SE REUNION_R64_SW REUNION_R64_NW BOM_LAT BOM_LON BOM_TYPE BOM_WIND BOM_PRES BOM_TNUM BOM_CI BOM_RMW BOM_R34_NE BOM_R34_SE BOM_R34_SW BOM_R34_NW BOM_R50_NE BOM_R50_SE BOM_R50_SW BOM_R50_NW BOM_R64_NE BOM_R64_SE BOM_R64_SW BOM_R64_NW BOM_ROCI BOM_POCI BOM_EYE BOM_POS_METHOD BOM_PRES_METHOD NADI_LAT NADI_LON NADI_CAT NADI_WIND NADI_PRES WELLINGTON_LAT WELLINGTON_LON WELLINGTON_WIND WELLINGTON_PRES DS824_LAT DS824_LON DS824_STAGE DS824_WIND DS824_PRES TD9636_LAT TD9636_LON TD9636_STAGE TD9636_WIND TD9636_PRES TD9635_LAT TD9635_LON TD9635_WIND TD9635_PRES TD9635_ROCI NEUMANN_LAT NEUMANN_LON NEUMANN_CLASS NEUMANN_WIND NEUMANN_PRES MLC_LAT MLC_LON MLC_CLASS MLC_WIND MLC_PRES USA_GUST BOM_GUST BOM_GUST_PER REUNION_GUST REUNION_GUST_PER USA_SEAHGT USA_SEARAD_NE USA_SEARAD_SE USA_SEARAD_SW USA_SEARAD_NW STORM_SPEED STORM_DIR
1940283N14119 1940 71 WP MM NOT_NAMED 1940-10-08 12:00:00 NR 14.0000 119.000 main 148 136 __________O___ -1 14.0000 119.000 4 7 344
1940283N14119 1940 71 WP MM NOT_NAMED 1940-10-08 15:00:00 NR 14.3138 118.910 main 140 133 __________P___ -1 14.3138 118.910 4 6 342
1940283N14119 1940 71 WP MM NOT_NAMED 1940-10-08 18:00:00 NR 14.6021 118.795 main 141 140 __________P___ -1 14.6021 118.795 4 6 333
1940283N14119 1940 71 WP MM NOT_NAMED 1940-10-08 21:00:00 NR 14.8394 118.633 main 154 150 __________P___ -1 14.8394 118.633 4 6 316
1940283N14119 1940 71 WP MM NOT_NAMED 1940-10-09 00:00:00 NR 15.0000 118.400 main 167 167 __________O___ -1 15.0000 118.400 4 6 293
1940283N14119 1940 71 WP MM NOT_NAMED 1940-10-09 03:00:00 NR 15.0651 118.083 main 196 196 __________P___ -1 15.0651 118.083 4 7 274
1940283N14119 1940 71 WP MM NOT_NAMED 1940-10-09 06:00:00 NR 15.0431 117.715 main 240 240 __________P___ -1 15.0431 117.715 4 7 261
1940283N14119 1940 71 WP MM NOT_NAMED 1940-10-09 09:00:00 NR 14.9495 117.339 main 284 284 __________P___ -1 14.9495 117.339 4 7 251
1940283N14119 1940 71 WP MM NOT_NAMED 1940-10-09 12:00:00 NR 14.8000 117.000 main 318 318 __________O___ -1 14.8000 117.000 4 6 240
1940283N14119 1940 71 WP MM NOT_NAMED 1940-10-09 15:00:00 NR 14.6290 116.765 main 344 344 __________P___ -1 14.6290 116.765 4 6 227
1940283N14119 1940 71 WP MM NOT_NAMED 1940-10-09 18:00:00 NR 14.4096 116.570 main 371 371 __________P___ -1 14.4096 116.570 4 6 218
1940283N14119 1940 71 WP MM NOT_NAMED 1940-10-09 21:00:00 NR 14.1603 116.390 main 399 399 __________P___ -1 14.1603 116.390 4 6 215
1940283N14119 1940 71 WP MM NOT_NAMED 1940-10-10 00:00:00 NR 13.9000 116.200 main 432 432 __________O___ -1 13.9000 116.200 4 7 217
1940283N14119 1940 71 WP MM NOT_NAMED 1940-10-10 03:00:00 NR 13.6044 115.964 main 456 456 __________P___ -1 13.6044 115.964 4 8 219
1940283N14119 1940 71 WP MM NOT_NAMED 1940-10-10 06:00:00 NR 13.3100 115.714 main 465 460 __________P___ -1 13.3100 115.714 4 7 222
1940283N14119 1940 71 WP MM NOT_NAMED 1940-10-10 09:00:00 NR 13.0606 115.458 main 474 474 __________P___ -1 13.0606 115.458 4 6 231
1940283N14119 1940 71 WP MM NOT_NAMED 1940-10-10 12:00:00 NR 12.9000 115.200 main 495 495 __________O___ -1 12.9000 115.200 4 6 247
1940283N14119 1940 71 WP MM NOT_NAMED 1940-10-10 15:00:00 NR 12.8410 114.938 main 512 512 __________P___ -1 12.8410 114.938 4 5 267
1940283N14119 1940 71 WP MM NOT_NAMED 1940-10-10 18:00:00 NR 12.8775 114.678 main 535 531 __________P___ -1 12.8775 114.678 4 5 288
1940283N14119 1940 71 WP MM NOT_NAMED 1940-10-10 21:00:00 NR 13.0003 114.429 main 531 510 __________P___ -1 13.0003 114.429 4 6 305
1940283N14119 1940 71 WP MM NOT_NAMED 1940-10-11 00:00:00 NR 13.2000 114.200 main 510 490 __________O___ -1 13.2000 114.200 4 6 318
1940283N14119 1940 71 WP MM NOT_NAMED 1940-10-11 03:00:00 NR 13.4489 114.007 main 490 474 __________P___ -1 13.4489 114.007 4 7 328
1940283N14119 1940 71 WP MM NOT_NAMED 1940-10-11 06:00:00 NR 13.7673 113.835 main 476 470 __________P___ -1 13.7673 113.835 4 8 334
1940283N14119 1940 71 WP MM NOT_NAMED 1940-10-11 09:00:00 NR 14.1271 113.670 main 473 456 __________P___ -1 14.1271 113.670 4 8 336
1940283N14119 1940 71 WP MM NOT_NAMED 1940-10-11 12:00:00 NR 14.5000 113.500 main 457 442 __________O___ -1 14.5000 113.500 4 8 336
1940283N14119 1940 71 WP MM NOT_NAMED 1940-10-11 15:00:00 NR 14.8670 113.323 main 445 433 __________P___ -1 14.8670 113.323 4 8 335
1940283N14119 1940 71 WP MM NOT_NAMED 1940-10-11 18:00:00 NR 15.2373 113.137 main 433 420 __________P___ -1 15.2373 113.137 4 8 332
1940283N14119 1940 71 WP MM NOT_NAMED 1940-10-11 21:00:00 NR 15.5889 112.933 main 420 397 __________P___ -1 15.5889 112.933 4 8 328
1940283N14119 1940 71 WP MM NOT_NAMED 1940-10-12 00:00:00 NR 15.9000 112.700 main 397 357 __________O___ -1 15.9000 112.700 4 7 321
1940283N14119 1940 71 WP MM NOT_NAMED 1940-10-12 03:00:00 NR 16.1633 112.445 main 351 320 __________P___ -1 16.1633 112.445 4 7 313
1940283N14119 1940 71 WP MM NOT_NAMED 1940-10-12 06:00:00 NR 16.3822 112.160 main 320 283 __________P___ -1 16.3822 112.160 4 7 305
1940283N14119 1940 71 WP MM NOT_NAMED 1940-10-12 09:00:00 NR 16.5601 111.845 main 277 247 __________P___ -1 16.5601 111.845 4 7 297
1940283N14119 1940 71 WP MM NOT_NAMED 1940-10-12 12:00:00 NR 16.7000 111.500 main 247 213 __________O___ -1 16.7000 111.500 4 7 288
1940283N14119 1940 71 WP MM NOT_NAMED 1940-10-12 15:00:00 NR 16.7826 111.124 main 213 189 __________P___ -1 16.7826 111.124 4 8 280
1940283N14119 1940 71 WP MM NOT_NAMED 1940-10-12 18:00:00 NR 16.8351 110.721 main 189 158 __________P___ -1 16.8351 110.721 4 8 278
1940283N14119 1940 71 WP MM NOT_NAMED 1940-10-12 21:00:00 NR 16.8950 110.308 main 158 135 __________P___ -1 16.8950 110.308 4 8 282
1940283N14119 1940 71 WP MM NOT_NAMED 1940-10-13 00:00:00 NR 17.0000 109.900 main 135 111 __________O___ -1 17.0000 109.900 4 8 294
1940283N14119 1940 71 WP MM NOT_NAMED 1940-10-13 03:00:00 NR 17.2319 109.518 main 111 84 __________P___ -1 17.2319 109.518 4 9 305
1940283N14119 1940 71 WP MM NOT_NAMED 1940-10-13 06:00:00 NR 17.5071 109.143 main 89 70 __________P___ -1 17.5071 109.143 4 9 308
1940283N14119 1940 71 WP MM NOT_NAMED 1940-10-13 09:00:00 NR 17.7788 108.772 main 70 59 __________P___ -1 17.7788 108.772 4 9 305
1940283N14119 1940 71 WP MM NOT_NAMED 1940-10-13 12:00:00 NR 18.0000 108.400 main 64 61 __________O___ -1 18.0000 108.400 4 8 297
1940283N14119 1940 71 WP MM NOT_NAMED 1940-10-13 15:00:00 NR 18.1357 108.027 main 86 81 __________P___ -1 18.1357 108.027 4 7 286
1940283N14119 1940 71 WP MM NOT_NAMED 1940-10-13 18:00:00 NR 18.1981 107.652 main 110 91 __________P___ -1 18.1981 107.652 4 7 276
1940283N14119 1940 71 WP MM NOT_NAMED 1940-10-13 21:00:00 NR 18.2115 107.276 main 91 53 __________P___ -1 18.2115 107.276 4 7 270
1940283N14119 1940 71 WP MM NOT_NAMED 1940-10-14 00:00:00 NR 18.2000 106.900 main 53 __________O___ -1 18.2000 106.900 4 7 268

デジタル台風データ・検索

IBTrACS Databaseについて

本データベースは、米国NOAAが公開する1842年以降の世界の熱帯低気圧のベストトラックデータアーカイブInternational Best Track Archive for Climate Stewardship (IBTrACS)を、ウェブで閲覧しやすい形式に変換したものです。

最終更新日:2021-10-25